sensor_id;sensor_type;location;lat;lon;timestamp;P1;durP1;ratioP1;P2;durP2;ratioP2
29788;SDS011;64899;42.660;23.268;2023-12-14T00:01:42;33.58;;;16.80;;
29788;SDS011;64899;42.660;23.268;2023-12-14T00:04:07;36.35;;;17.73;;
29788;SDS011;64899;42.660;23.268;2023-12-14T00:06:33;30.42;;;16.48;;
29788;SDS011;64899;42.660;23.268;2023-12-14T00:08:58;34.40;;;15.73;;
29788;SDS011;64899;42.660;23.268;2023-12-14T00:11:23;33.08;;;16.00;;
29788;SDS011;64899;42.660;23.268;2023-12-14T00:13:49;26.67;;;14.95;;
29788;SDS011;64899;42.660;23.268;2023-12-14T00:16:14;29.65;;;16.10;;
29788;SDS011;64899;42.660;23.268;2023-12-14T00:18:40;27.73;;;15.05;;
29788;SDS011;64899;42.660;23.268;2023-12-14T00:21:05;26.15;;;15.63;;
29788;SDS011;64899;42.660;23.268;2023-12-14T00:23:31;25.05;;;13.68;;
29788;SDS011;64899;42.660;23.268;2023-12-14T00:25:56;25.17;;;13.40;;
29788;SDS011;64899;42.660;23.268;2023-12-14T00:28:21;33.15;;;18.60;;
29788;SDS011;64899;42.660;23.268;2023-12-14T00:30:47;28.63;;;16.23;;
29788;SDS011;64899;42.660;23.268;2023-12-14T00:33:13;27.40;;;16.02;;
29788;SDS011;64899;42.660;23.268;2023-12-14T00:35:38;23.15;;;14.02;;
29788;SDS011;64899;42.660;23.268;2023-12-14T00:38:03;28.77;;;15.15;;
29788;SDS011;64899;42.660;23.268;2023-12-14T00:40:29;25.13;;;13.90;;
29788;SDS011;64899;42.660;23.268;2023-12-14T00:42:54;21.38;;;13.00;;
29788;SDS011;64899;42.660;23.268;2023-12-14T00:45:19;24.77;;;13.60;;
29788;SDS011;64899;42.660;23.268;2023-12-14T00:47:45;21.25;;;14.27;;
29788;SDS011;64899;42.660;23.268;2023-12-14T00:50:10;24.30;;;15.02;;
29788;SDS011;64899;42.660;23.268;2023-12-14T00:52:36;23.95;;;14.27;;
29788;SDS011;64899;42.660;23.268;2023-12-14T00:55:01;25.85;;;14.63;;
29788;SDS011;64899;42.660;23.268;2023-12-14T00:57:27;26.95;;;14.57;;
29788;SDS011;64899;42.660;23.268;2023-12-14T00:59:52;25.83;;;15.48;;
29788;SDS011;64899;42.660;23.268;2023-12-14T01:02:17;23.60;;;14.45;;
29788;SDS011;64899;42.660;23.268;2023-12-14T01:04:43;25.17;;;14.88;;
29788;SDS011;64899;42.660;23.268;2023-12-14T01:07:08;26.45;;;15.32;;
29788;SDS011;64899;42.660;23.268;2023-12-14T01:09:33;22.70;;;14.70;;
29788;SDS011;64899;42.660;23.268;2023-12-14T01:11:59;28.40;;;15.48;;
29788;SDS011;64899;42.660;23.268;2023-12-14T01:14:24;27.15;;;15.52;;
29788;SDS011;64899;42.660;23.268;2023-12-14T01:16:50;30.13;;;16.17;;
29788;SDS011;64899;42.660;23.268;2023-12-14T01:19:15;35.20;;;17.85;;
29788;SDS011;64899;42.660;23.268;2023-12-14T01:21:40;33.78;;;17.35;;
29788;SDS011;64899;42.660;23.268;2023-12-14T01:24:06;28.02;;;16.23;;
29788;SDS011;64899;42.660;23.268;2023-12-14T01:26:31;30.60;;;16.17;;
29788;SDS011;64899;42.660;23.268;2023-12-14T01:28:57;27.60;;;15.10;;
29788;SDS011;64899;42.660;23.268;2023-12-14T01:31:24;27.45;;;15.57;;
29788;SDS011;64899;42.660;23.268;2023-12-14T01:33:49;22.50;;;13.05;;
29788;SDS011;64899;42.660;23.268;2023-12-14T01:36:21;25.25;;;13.18;;
29788;SDS011;64899;42.660;23.268;2023-12-14T01:38:47;24.63;;;13.05;;
29788;SDS011;64899;42.660;23.268;2023-12-14T01:41:13;22.48;;;13.82;;
29788;SDS011;64899;42.660;23.268;2023-12-14T01:43:38;21.60;;;13.15;;
29788;SDS011;64899;42.660;23.268;2023-12-14T01:46:04;27.88;;;14.73;;
29788;SDS011;64899;42.660;23.268;2023-12-14T01:48:29;25.52;;;14.43;;
29788;SDS011;64899;42.660;23.268;2023-12-14T01:50:55;24.15;;;12.93;;
29788;SDS011;64899;42.660;23.268;2023-12-14T01:53:20;23.05;;;14.18;;
29788;SDS011;64899;42.660;23.268;2023-12-14T01:55:46;27.98;;;15.40;;
29788;SDS011;64899;42.660;23.268;2023-12-14T01:58:11;24.60;;;14.10;;
29788;SDS011;64899;42.660;23.268;2023-12-14T02:03:05;24.58;;;12.43;;
29788;SDS011;64899;42.660;23.268;2023-12-14T02:05:31;23.05;;;13.02;;
29788;SDS011;64899;42.660;23.268;2023-12-14T02:07:56;18.83;;;11.65;;
29788;SDS011;64899;42.660;23.268;2023-12-14T02:10:22;21.83;;;12.10;;
29788;SDS011;64899;42.660;23.268;2023-12-14T02:12:48;20.60;;;12.50;;
29788;SDS011;64899;42.660;23.268;2023-12-14T02:15:13;19.33;;;11.65;;
29788;SDS011;64899;42.660;23.268;2023-12-14T02:17:38;23.55;;;12.55;;
29788;SDS011;64899;42.660;23.268;2023-12-14T02:20:04;22.40;;;13.73;;
29788;SDS011;64899;42.660;23.268;2023-12-14T02:22:52;21.67;;;13.70;;
29788;SDS011;64899;42.660;23.268;2023-12-14T02:25:18;21.40;;;13.63;;
29788;SDS011;64899;42.660;23.268;2023-12-14T02:27:44;25.27;;;14.35;;
29788;SDS011;64899;42.660;23.268;2023-12-14T02:30:10;21.67;;;11.68;;
29788;SDS011;64899;42.660;23.268;2023-12-14T02:32:37;20.35;;;11.82;;
29788;SDS011;64899;42.660;23.268;2023-12-14T02:35:02;14.90;;;9.52;;
29788;SDS011;64899;42.660;23.268;2023-12-14T02:37:28;16.10;;;10.05;;
29788;SDS011;64899;42.660;23.268;2023-12-14T02:39:53;18.02;;;10.70;;
29788;SDS011;64899;42.660;23.268;2023-12-14T02:42:19;16.40;;;9.50;;
29788;SDS011;64899;42.660;23.268;2023-12-14T02:44:44;15.90;;;10.02;;
29788;SDS011;64899;42.660;23.268;2023-12-14T02:47:10;16.38;;;9.55;;
29788;SDS011;64899;42.660;23.268;2023-12-14T02:49:35;13.68;;;8.68;;
29788;SDS011;64899;42.660;23.268;2023-12-14T02:52:00;13.45;;;8.38;;
29788;SDS011;64899;42.660;23.268;2023-12-14T02:54:26;13.25;;;8.85;;
29788;SDS011;64899;42.660;23.268;2023-12-14T02:56:51;15.27;;;8.20;;
29788;SDS011;64899;42.660;23.268;2023-12-14T02:59:16;17.15;;;8.73;;
29788;SDS011;64899;42.660;23.268;2023-12-14T03:01:42;12.10;;;8.30;;
29788;SDS011;64899;42.660;23.268;2023-12-14T03:04:07;15.85;;;9.63;;
29788;SDS011;64899;42.660;23.268;2023-12-14T03:06:33;13.20;;;7.72;;
29788;SDS011;64899;42.660;23.268;2023-12-14T03:08:58;13.77;;;7.90;;
29788;SDS011;64899;42.660;23.268;2023-12-14T03:11:24;10.25;;;7.07;;
29788;SDS011;64899;42.660;23.268;2023-12-14T03:13:50;12.55;;;8.13;;
29788;SDS011;64899;42.660;23.268;2023-12-14T03:16:15;15.90;;;8.55;;
29788;SDS011;64899;42.660;23.268;2023-12-14T03:18:44;14.48;;;8.23;;
29788;SDS011;64899;42.660;23.268;2023-12-14T03:21:10;14.73;;;8.27;;
29788;SDS011;64899;42.660;23.268;2023-12-14T03:23:35;14.38;;;7.88;;
29788;SDS011;64899;42.660;23.268;2023-12-14T03:26:01;13.85;;;7.97;;
29788;SDS011;64899;42.660;23.268;2023-12-14T03:28:26;15.23;;;8.02;;
29788;SDS011;64899;42.660;23.268;2023-12-14T03:30:52;16.05;;;8.18;;
29788;SDS011;64899;42.660;23.268;2023-12-14T03:33:18;13.50;;;8.02;;
29788;SDS011;64899;42.660;23.268;2023-12-14T03:35:43;11.52;;;6.88;;
29788;SDS011;64899;42.660;23.268;2023-12-14T03:38:09;12.73;;;7.18;;
29788;SDS011;64899;42.660;23.268;2023-12-14T03:40:34;15.13;;;8.05;;
29788;SDS011;64899;42.660;23.268;2023-12-14T03:43:00;11.85;;;6.97;;
29788;SDS011;64899;42.660;23.268;2023-12-14T03:45:28;14.60;;;8.45;;
29788;SDS011;64899;42.660;23.268;2023-12-14T03:47:53;13.25;;;7.68;;
29788;SDS011;64899;42.660;23.268;2023-12-14T03:50:19;11.23;;;7.53;;
29788;SDS011;64899;42.660;23.268;2023-12-14T03:52:44;15.77;;;7.95;;
29788;SDS011;64899;42.660;23.268;2023-12-14T03:55:10;12.90;;;7.63;;
29788;SDS011;64899;42.660;23.268;2023-12-14T03:57:35;14.27;;;7.80;;
29788;SDS011;64899;42.660;23.268;2023-12-14T04:00:00;13.70;;;8.10;;
29788;SDS011;64899;42.660;23.268;2023-12-14T04:02:26;16.13;;;8.48;;
29788;SDS011;64899;42.660;23.268;2023-12-14T04:04:51;13.10;;;7.60;;
29788;SDS011;64899;42.660;23.268;2023-12-14T04:07:17;13.68;;;7.95;;
29788;SDS011;64899;42.660;23.268;2023-12-14T04:09:43;14.02;;;8.10;;
29788;SDS011;64899;42.660;23.268;2023-12-14T04:12:09;14.43;;;8.02;;
29788;SDS011;64899;42.660;23.268;2023-12-14T04:14:34;16.73;;;9.00;;
29788;SDS011;64899;42.660;23.268;2023-12-14T04:17:00;13.10;;;8.38;;
29788;SDS011;64899;42.660;23.268;2023-12-14T04:19:25;14.20;;;7.63;;
29788;SDS011;64899;42.660;23.268;2023-12-14T04:21:51;17.90;;;9.10;;
29788;SDS011;64899;42.660;23.268;2023-12-14T04:24:16;14.75;;;8.30;;
29788;SDS011;64899;42.660;23.268;2023-12-14T04:26:41;19.80;;;10.70;;
29788;SDS011;64899;42.660;23.268;2023-12-14T04:29:07;14.07;;;8.98;;
29788;SDS011;64899;42.660;23.268;2023-12-14T04:31:33;12.07;;;7.70;;
29788;SDS011;64899;42.660;23.268;2023-12-14T04:33:59;14.95;;;8.48;;
29788;SDS011;64899;42.660;23.268;2023-12-14T04:36:24;13.07;;;7.28;;
29788;SDS011;64899;42.660;23.268;2023-12-14T04:38:50;11.73;;;7.35;;
29788;SDS011;64899;42.660;23.268;2023-12-14T04:41:15;10.18;;;6.53;;
29788;SDS011;64899;42.660;23.268;2023-12-14T04:43:40;10.77;;;6.60;;
29788;SDS011;64899;42.660;23.268;2023-12-14T04:46:06;12.32;;;6.93;;
29788;SDS011;64899;42.660;23.268;2023-12-14T04:48:32;10.38;;;6.43;;
29788;SDS011;64899;42.660;23.268;2023-12-14T04:50:57;13.02;;;6.40;;
29788;SDS011;64899;42.660;23.268;2023-12-14T04:53:22;13.20;;;7.03;;
29788;SDS011;64899;42.660;23.268;2023-12-14T04:55:48;14.35;;;8.63;;
29788;SDS011;64899;42.660;23.268;2023-12-14T04:58:13;15.38;;;8.30;;
29788;SDS011;64899;42.660;23.268;2023-12-14T05:00:39;13.60;;;7.85;;
29788;SDS011;64899;42.660;23.268;2023-12-14T05:03:04;16.65;;;8.20;;
29788;SDS011;64899;42.660;23.268;2023-12-14T05:05:29;16.65;;;8.45;;
29788;SDS011;64899;42.660;23.268;2023-12-14T05:07:55;13.85;;;7.85;;
29788;SDS011;64899;42.660;23.268;2023-12-14T05:10:20;13.18;;;7.60;;
29788;SDS011;64899;42.660;23.268;2023-12-14T05:12:45;11.30;;;7.22;;
29788;SDS011;64899;42.660;23.268;2023-12-14T05:15:11;13.57;;;7.18;;
29788;SDS011;64899;42.660;23.268;2023-12-14T05:17:36;11.88;;;6.78;;
29788;SDS011;64899;42.660;23.268;2023-12-14T05:20:03;15.40;;;7.07;;
29788;SDS011;64899;42.660;23.268;2023-12-14T05:22:29;9.45;;;6.40;;
29788;SDS011;64899;42.660;23.268;2023-12-14T05:24:55;10.52;;;6.35;;
29788;SDS011;64899;42.660;23.268;2023-12-14T05:27:20;13.48;;;8.57;;
29788;SDS011;64899;42.660;23.268;2023-12-14T05:29:46;14.57;;;8.90;;
29788;SDS011;64899;42.660;23.268;2023-12-14T05:32:11;12.85;;;7.50;;
29788;SDS011;64899;42.660;23.268;2023-12-14T05:34:37;13.23;;;8.18;;
29788;SDS011;64899;42.660;23.268;2023-12-14T05:37:02;13.98;;;7.47;;
29788;SDS011;64899;42.660;23.268;2023-12-14T05:39:28;13.55;;;7.93;;
29788;SDS011;64899;42.660;23.268;2023-12-14T05:41:53;19.23;;;9.52;;
29788;SDS011;64899;42.660;23.268;2023-12-14T05:44:19;13.20;;;8.30;;
29788;SDS011;64899;42.660;23.268;2023-12-14T05:46:44;11.20;;;7.18;;
29788;SDS011;64899;42.660;23.268;2023-12-14T05:49:10;12.50;;;8.07;;
29788;SDS011;64899;42.660;23.268;2023-12-14T05:51:36;11.35;;;7.43;;
29788;SDS011;64899;42.660;23.268;2023-12-14T05:54:02;14.20;;;7.22;;
29788;SDS011;64899;42.660;23.268;2023-12-14T05:56:28;14.20;;;8.98;;
29788;SDS011;64899;42.660;23.268;2023-12-14T05:58:54;12.75;;;8.15;;
29788;SDS011;64899;42.660;23.268;2023-12-14T06:01:19;9.77;;;6.68;;
29788;SDS011;64899;42.660;23.268;2023-12-14T06:03:45;14.75;;;7.95;;
29788;SDS011;64899;42.660;23.268;2023-12-14T06:06:11;12.48;;;8.07;;
29788;SDS011;64899;42.660;23.268;2023-12-14T06:08:38;13.98;;;7.65;;
29788;SDS011;64899;42.660;23.268;2023-12-14T06:11:04;15.15;;;8.15;;
29788;SDS011;64899;42.660;23.268;2023-12-14T06:13:31;14.65;;;9.30;;
29788;SDS011;64899;42.660;23.268;2023-12-14T06:15:56;13.07;;;8.75;;
29788;SDS011;64899;42.660;23.268;2023-12-14T06:18:22;13.75;;;7.30;;
29788;SDS011;64899;42.660;23.268;2023-12-14T06:20:47;13.85;;;8.77;;
29788;SDS011;64899;42.660;23.268;2023-12-14T06:23:12;16.27;;;9.38;;
29788;SDS011;64899;42.660;23.268;2023-12-14T06:25:38;16.88;;;9.90;;
29788;SDS011;64899;42.660;23.268;2023-12-14T06:28:03;16.35;;;9.40;;
29788;SDS011;64899;42.660;23.268;2023-12-14T06:30:28;21.83;;;10.98;;
29788;SDS011;64899;42.660;23.268;2023-12-14T06:32:54;21.10;;;11.65;;
29788;SDS011;64899;42.660;23.268;2023-12-14T06:35:19;29.30;;;14.50;;
29788;SDS011;64899;42.660;23.268;2023-12-14T06:37:45;24.33;;;11.68;;
29788;SDS011;64899;42.660;23.268;2023-12-14T06:40:10;18.17;;;9.75;;
29788;SDS011;64899;42.660;23.268;2023-12-14T06:42:36;19.48;;;9.95;;
29788;SDS011;64899;42.660;23.268;2023-12-14T06:45:02;20.63;;;8.82;;
29788;SDS011;64899;42.660;23.268;2023-12-14T06:47:28;14.32;;;9.20;;
29788;SDS011;64899;42.660;23.268;2023-12-14T06:49:53;15.98;;;8.55;;
29788;SDS011;64899;42.660;23.268;2023-12-14T06:52:19;18.45;;;8.82;;
29788;SDS011;64899;42.660;23.268;2023-12-14T06:54:44;15.18;;;8.20;;
29788;SDS011;64899;42.660;23.268;2023-12-14T06:57:10;14.15;;;8.77;;
29788;SDS011;64899;42.660;23.268;2023-12-14T06:59:35;20.73;;;9.23;;
29788;SDS011;64899;42.660;23.268;2023-12-14T07:02:00;13.38;;;8.02;;
29788;SDS011;64899;42.660;23.268;2023-12-14T07:04:26;17.48;;;8.05;;
29788;SDS011;64899;42.660;23.268;2023-12-14T07:06:51;12.90;;;7.63;;
29788;SDS011;64899;42.660;23.268;2023-12-14T07:09:17;14.07;;;7.72;;
29788;SDS011;64899;42.660;23.268;2023-12-14T07:11:43;12.38;;;6.85;;
29788;SDS011;64899;42.660;23.268;2023-12-14T07:14:08;9.95;;;7.22;;
29788;SDS011;64899;42.660;23.268;2023-12-14T07:16:34;12.73;;;6.68;;
29788;SDS011;64899;42.660;23.268;2023-12-14T07:18:59;12.77;;;7.10;;
29788;SDS011;64899;42.660;23.268;2023-12-14T07:21:24;12.68;;;6.72;;
29788;SDS011;64899;42.660;23.268;2023-12-14T07:23:50;16.95;;;7.63;;
29788;SDS011;64899;42.660;23.268;2023-12-14T07:26:15;14.70;;;7.20;;
29788;SDS011;64899;42.660;23.268;2023-12-14T07:28:40;15.63;;;6.78;;
29788;SDS011;64899;42.660;23.268;2023-12-14T07:31:06;15.65;;;6.88;;
29788;SDS011;64899;42.660;23.268;2023-12-14T07:33:31;13.93;;;8.07;;
29788;SDS011;64899;42.660;23.268;2023-12-14T07:35:56;19.77;;;9.77;;
29788;SDS011;64899;42.660;23.268;2023-12-14T07:38:22;15.85;;;8.38;;
29788;SDS011;64899;42.660;23.268;2023-12-14T07:40:47;23.63;;;7.80;;
29788;SDS011;64899;42.660;23.268;2023-12-14T07:43:15;16.25;;;7.32;;
29788;SDS011;64899;42.660;23.268;2023-12-14T07:45:40;17.83;;;7.63;;
29788;SDS011;64899;42.660;23.268;2023-12-14T07:48:06;15.85;;;7.45;;
29788;SDS011;64899;42.660;23.268;2023-12-14T07:50:31;17.55;;;7.38;;
29788;SDS011;64899;42.660;23.268;2023-12-14T07:52:57;15.50;;;7.30;;
29788;SDS011;64899;42.660;23.268;2023-12-14T07:55:22;19.90;;;7.30;;
29788;SDS011;64899;42.660;23.268;2023-12-14T07:57:48;15.57;;;6.70;;
29788;SDS011;64899;42.660;23.268;2023-12-14T08:00:15;12.25;;;6.75;;
29788;SDS011;64899;42.660;23.268;2023-12-14T08:02:40;16.75;;;7.18;;
29788;SDS011;64899;42.660;23.268;2023-12-14T08:05:07;15.23;;;6.93;;
29788;SDS011;64899;42.660;23.268;2023-12-14T08:07:32;18.52;;;7.45;;
29788;SDS011;64899;42.660;23.268;2023-12-14T08:09:58;19.88;;;6.75;;
29788;SDS011;64899;42.660;23.268;2023-12-14T08:12:24;10.75;;;7.00;;
29788;SDS011;64899;42.660;23.268;2023-12-14T08:14:50;18.42;;;6.63;;
29788;SDS011;64899;42.660;23.268;2023-12-14T08:17:15;18.83;;;6.40;;
29788;SDS011;64899;42.660;23.268;2023-12-14T08:19:41;13.95;;;5.75;;
29788;SDS011;64899;42.660;23.268;2023-12-14T08:22:07;13.95;;;5.95;;
29788;SDS011;64899;42.660;23.268;2023-12-14T08:24:36;10.95;;;5.97;;
29788;SDS011;64899;42.660;23.268;2023-12-14T08:27:01;12.38;;;6.28;;
29788;SDS011;64899;42.660;23.268;2023-12-14T08:29:27;14.82;;;6.05;;
29788;SDS011;64899;42.660;23.268;2023-12-14T08:31:52;11.70;;;5.93;;
29788;SDS011;64899;42.660;23.268;2023-12-14T08:34:18;14.20;;;6.43;;
29788;SDS011;64899;42.660;23.268;2023-12-14T08:36:43;14.43;;;6.32;;
29788;SDS011;64899;42.660;23.268;2023-12-14T08:39:09;14.15;;;6.28;;
29788;SDS011;64899;42.660;23.268;2023-12-14T08:41:34;11.25;;;6.35;;
29788;SDS011;64899;42.660;23.268;2023-12-14T08:44:00;14.75;;;6.57;;
29788;SDS011;64899;42.660;23.268;2023-12-14T08:46:25;15.00;;;6.78;;
29788;SDS011;64899;42.660;23.268;2023-12-14T08:48:51;17.15;;;7.53;;
29788;SDS011;64899;42.660;23.268;2023-12-14T08:51:17;11.68;;;6.78;;
29788;SDS011;64899;42.660;23.268;2023-12-14T08:53:44;15.32;;;6.47;;
29788;SDS011;64899;42.660;23.268;2023-12-14T08:56:09;14.25;;;6.95;;
29788;SDS011;64899;42.660;23.268;2023-12-14T08:58:35;12.73;;;6.35;;
29788;SDS011;64899;42.660;23.268;2023-12-14T09:01:00;17.10;;;6.68;;
29788;SDS011;64899;42.660;23.268;2023-12-14T09:03:26;16.75;;;6.57;;
29788;SDS011;64899;42.660;23.268;2023-12-14T09:05:52;11.05;;;5.70;;
29788;SDS011;64899;42.660;23.268;2023-12-14T09:08:17;13.90;;;6.53;;
29788;SDS011;64899;42.660;23.268;2023-12-14T09:10:43;13.80;;;6.13;;
29788;SDS011;64899;42.660;23.268;2023-12-14T09:13:08;18.02;;;6.38;;
29788;SDS011;64899;42.660;23.268;2023-12-14T09:15:33;11.02;;;6.03;;
29788;SDS011;64899;42.660;23.268;2023-12-14T09:17:59;15.68;;;6.25;;
29788;SDS011;64899;42.660;23.268;2023-12-14T09:20:25;16.10;;;6.38;;
29788;SDS011;64899;42.660;23.268;2023-12-14T09:22:50;14.45;;;6.53;;
29788;SDS011;64899;42.660;23.268;2023-12-14T09:25:16;12.68;;;5.72;;
29788;SDS011;64899;42.660;23.268;2023-12-14T09:27:41;13.10;;;5.65;;
29788;SDS011;64899;42.660;23.268;2023-12-14T09:30:07;18.90;;;6.18;;
29788;SDS011;64899;42.660;23.268;2023-12-14T09:32:33;9.23;;;5.38;;
29788;SDS011;64899;42.660;23.268;2023-12-14T09:34:58;12.45;;;5.38;;
29788;SDS011;64899;42.660;23.268;2023-12-14T09:37:24;15.88;;;5.78;;
29788;SDS011;64899;42.660;23.268;2023-12-14T09:39:49;16.08;;;5.40;;
29788;SDS011;64899;42.660;23.268;2023-12-14T09:42:16;18.25;;;4.72;;
29788;SDS011;64899;42.660;23.268;2023-12-14T09:44:44;9.85;;;5.57;;
29788;SDS011;64899;42.660;23.268;2023-12-14T09:47:09;18.40;;;5.38;;
29788;SDS011;64899;42.660;23.268;2023-12-14T09:49:34;15.70;;;5.38;;
29788;SDS011;64899;42.660;23.268;2023-12-14T09:52:01;9.85;;;5.88;;
29788;SDS011;64899;42.660;23.268;2023-12-14T09:54:26;11.13;;;5.13;;
29788;SDS011;64899;42.660;23.268;2023-12-14T09:56:52;8.63;;;4.72;;
29788;SDS011;64899;42.660;23.268;2023-12-14T09:59:18;12.57;;;5.47;;
29788;SDS011;64899;42.660;23.268;2023-12-14T10:01:46;14.13;;;5.93;;
29788;SDS011;64899;42.660;23.268;2023-12-14T10:04:16;11.63;;;5.25;;
29788;SDS011;64899;42.660;23.268;2023-12-14T10:06:44;11.27;;;5.40;;
29788;SDS011;64899;42.660;23.268;2023-12-14T10:09:10;16.25;;;5.43;;
29788;SDS011;64899;42.660;23.268;2023-12-14T10:11:38;13.10;;;4.95;;
29788;SDS011;64899;42.660;23.268;2023-12-14T10:14:20;14.45;;;5.45;;
29788;SDS011;64899;42.660;23.268;2023-12-14T10:16:47;12.90;;;5.20;;
29788;SDS011;64899;42.660;23.268;2023-12-14T10:19:14;12.80;;;5.10;;
29788;SDS011;64899;42.660;23.268;2023-12-14T10:21:39;12.07;;;5.35;;
29788;SDS011;64899;42.660;23.268;2023-12-14T10:24:06;11.90;;;5.80;;
29788;SDS011;64899;42.660;23.268;2023-12-14T10:26:31;15.07;;;7.18;;
29788;SDS011;64899;42.660;23.268;2023-12-14T10:28:56;18.90;;;7.95;;
29788;SDS011;64899;42.660;23.268;2023-12-14T10:31:22;17.60;;;7.22;;
29788;SDS011;64899;42.660;23.268;2023-12-14T10:33:49;20.00;;;9.18;;
29788;SDS011;64899;42.660;23.268;2023-12-14T10:36:17;23.38;;;9.20;;
29788;SDS011;64899;42.660;23.268;2023-12-14T10:38:44;17.30;;;8.18;;
29788;SDS011;64899;42.660;23.268;2023-12-14T10:41:13;18.15;;;9.05;;
29788;SDS011;64899;42.660;23.268;2023-12-14T10:43:38;17.67;;;8.02;;
29788;SDS011;64899;42.660;23.268;2023-12-14T10:46:05;15.40;;;8.20;;
29788;SDS011;64899;42.660;23.268;2023-12-14T10:48:32;15.38;;;7.88;;
29788;SDS011;64899;42.660;23.268;2023-12-14T10:50:57;13.98;;;8.95;;
29788;SDS011;64899;42.660;23.268;2023-12-14T10:53:24;18.90;;;9.48;;
29788;SDS011;64899;42.660;23.268;2023-12-14T10:55:50;19.27;;;9.30;;
29788;SDS011;64899;42.660;23.268;2023-12-14T10:58:16;22.33;;;9.73;;
29788;SDS011;64899;42.660;23.268;2023-12-14T11:00:42;12.63;;;6.57;;
29788;SDS011;64899;42.660;23.268;2023-12-14T11:03:12;10.57;;;5.93;;
29788;SDS011;64899;42.660;23.268;2023-12-14T11:05:38;9.55;;;6.20;;
29788;SDS011;64899;42.660;23.268;2023-12-14T11:08:04;13.13;;;5.95;;
29788;SDS011;64899;42.660;23.268;2023-12-14T11:13:17;5.38;;;3.72;;
29788;SDS011;64899;42.660;23.268;2023-12-14T11:15:49;7.28;;;3.65;;
29788;SDS011;64899;42.660;23.268;2023-12-14T11:23:10;5.10;;;3.55;;
29788;SDS011;64899;42.660;23.268;2023-12-14T11:25:38;4.13;;;2.92;;
29788;SDS011;64899;42.660;23.268;2023-12-14T11:28:04;4.53;;;3.03;;
29788;SDS011;64899;42.660;23.268;2023-12-14T11:30:32;7.97;;;3.67;;
29788;SDS011;64899;42.660;23.268;2023-12-14T11:32:58;7.18;;;3.95;;
29788;SDS011;64899;42.660;23.268;2023-12-14T11:35:24;3.25;;;2.58;;
29788;SDS011;64899;42.660;23.268;2023-12-14T11:37:49;4.95;;;2.63;;
29788;SDS011;64899;42.660;23.268;2023-12-14T11:40:15;6.78;;;2.45;;
29788;SDS011;64899;42.660;23.268;2023-12-14T11:42:56;3.38;;;2.17;;
29788;SDS011;64899;42.660;23.268;2023-12-14T11:45:25;5.63;;;1.90;;
29788;SDS011;64899;42.660;23.268;2023-12-14T11:47:51;5.65;;;1.80;;
29788;SDS011;64899;42.660;23.268;2023-12-14T11:50:17;3.15;;;1.92;;
29788;SDS011;64899;42.660;23.268;2023-12-14T11:52:43;2.78;;;1.70;;
29788;SDS011;64899;42.660;23.268;2023-12-14T11:55:11;2.33;;;1.67;;
29788;SDS011;64899;42.660;23.268;2023-12-14T11:57:36;16.08;;;7.55;;
29788;SDS011;64899;42.660;23.268;2023-12-14T12:00:02;3.70;;;2.15;;
29788;SDS011;64899;42.660;23.268;2023-12-14T12:02:28;3.10;;;2.38;;
29788;SDS011;64899;42.660;23.268;2023-12-14T12:04:53;1.73;;;1.42;;
29788;SDS011;64899;42.660;23.268;2023-12-14T12:07:19;1.13;;;1.00;;
29788;SDS011;64899;42.660;23.268;2023-12-14T12:09:44;8.88;;;1.40;;
29788;SDS011;64899;42.660;23.268;2023-12-14T12:12:10;3.15;;;1.27;;
29788;SDS011;64899;42.660;23.268;2023-12-14T12:14:37;1.08;;;0.98;;
29788;SDS011;64899;42.660;23.268;2023-12-14T12:17:03;1.33;;;1.00;;
29788;SDS011;64899;42.660;23.268;2023-12-14T12:19:31;4.53;;;1.27;;
29788;SDS011;64899;42.660;23.268;2023-12-14T12:21:57;1.95;;;1.45;;
29788;SDS011;64899;42.660;23.268;2023-12-14T12:24:23;3.45;;;1.42;;
29788;SDS011;64899;42.660;23.268;2023-12-14T12:26:48;2.92;;;1.30;;
29788;SDS011;64899;42.660;23.268;2023-12-14T12:29:13;4.88;;;1.50;;
29788;SDS011;64899;42.660;23.268;2023-12-14T12:31:39;2.97;;;1.48;;
29788;SDS011;64899;42.660;23.268;2023-12-14T12:34:05;2.00;;;1.33;;
29788;SDS011;64899;42.660;23.268;2023-12-14T12:36:30;2.55;;;1.20;;
29788;SDS011;64899;42.660;23.268;2023-12-14T12:38:56;4.82;;;0.82;;
29788;SDS011;64899;42.660;23.268;2023-12-14T12:41:21;1.38;;;0.90;;
29788;SDS011;64899;42.660;23.268;2023-12-14T12:43:47;0.88;;;0.70;;
29788;SDS011;64899;42.660;23.268;2023-12-14T12:46:12;3.90;;;1.35;;
29788;SDS011;64899;42.660;23.268;2023-12-14T12:48:37;1.55;;;1.00;;
29788;SDS011;64899;42.660;23.268;2023-12-14T12:51:04;1.50;;;1.02;;
29788;SDS011;64899;42.660;23.268;2023-12-14T12:53:30;0.93;;;0.90;;
29788;SDS011;64899;42.660;23.268;2023-12-14T12:55:55;4.20;;;1.00;;
29788;SDS011;64899;42.660;23.268;2023-12-14T12:58:21;1.83;;;1.00;;
29788;SDS011;64899;42.660;23.268;2023-12-14T13:00:46;1.45;;;0.80;;
29788;SDS011;64899;42.660;23.268;2023-12-14T13:03:11;4.40;;;1.48;;
29788;SDS011;64899;42.660;23.268;2023-12-14T13:05:37;1.65;;;1.30;;
29788;SDS011;64899;42.660;23.268;2023-12-14T13:08:03;3.30;;;1.65;;
29788;SDS011;64899;42.660;23.268;2023-12-14T13:10:28;2.95;;;1.00;;
29788;SDS011;64899;42.660;23.268;2023-12-14T13:12:54;0.80;;;0.80;;
29788;SDS011;64899;42.660;23.268;2023-12-14T13:15:19;0.80;;;0.80;;
29788;SDS011;64899;42.660;23.268;2023-12-14T13:17:44;1.15;;;1.02;;
29788;SDS011;64899;42.660;23.268;2023-12-14T13:20:10;1.30;;;1.00;;
29788;SDS011;64899;42.660;23.268;2023-12-14T13:22:35;1.88;;;1.27;;
29788;SDS011;64899;42.660;23.268;2023-12-14T13:25:01;1.98;;;1.35;;
29788;SDS011;64899;42.660;23.268;2023-12-14T13:27:28;1.23;;;0.90;;
29788;SDS011;64899;42.660;23.268;2023-12-14T13:29:53;0.95;;;0.82;;
29788;SDS011;64899;42.660;23.268;2023-12-14T13:32:19;2.28;;;1.00;;
29788;SDS011;64899;42.660;23.268;2023-12-14T13:34:44;1.17;;;0.80;;
29788;SDS011;64899;42.660;23.268;2023-12-14T13:37:09;0.90;;;0.80;;
29788;SDS011;64899;42.660;23.268;2023-12-14T13:39:35;2.83;;;1.10;;
29788;SDS011;64899;42.660;23.268;2023-12-14T13:42:04;1.52;;;1.27;;
29788;SDS011;64899;42.660;23.268;2023-12-14T13:44:31;2.28;;;1.30;;
29788;SDS011;64899;42.660;23.268;2023-12-14T13:46:56;2.33;;;1.67;;
29788;SDS011;64899;42.660;23.268;2023-12-14T13:49:22;2.30;;;1.10;;
29788;SDS011;64899;42.660;23.268;2023-12-14T13:51:47;1.60;;;1.15;;
29788;SDS011;64899;42.660;23.268;2023-12-14T13:54:13;2.67;;;1.27;;
29788;SDS011;64899;42.660;23.268;2023-12-14T13:56:38;4.32;;;1.33;;
29788;SDS011;64899;42.660;23.268;2023-12-14T13:59:04;3.80;;;1.05;;
29788;SDS011;64899;42.660;23.268;2023-12-14T14:01:29;1.60;;;1.00;;
29788;SDS011;64899;42.660;23.268;2023-12-14T14:03:55;2.47;;;1.35;;
29788;SDS011;64899;42.660;23.268;2023-12-14T14:06:20;3.15;;;1.80;;
29788;SDS011;64899;42.660;23.268;2023-12-14T14:08:48;4.28;;;2.33;;
29788;SDS011;64899;42.660;23.268;2023-12-14T14:11:13;2.50;;;1.52;;
29788;SDS011;64899;42.660;23.268;2023-12-14T14:13:38;2.85;;;1.30;;
29788;SDS011;64899;42.660;23.268;2023-12-14T14:16:04;2.75;;;1.45;;
29788;SDS011;64899;42.660;23.268;2023-12-14T14:18:31;3.00;;;1.20;;
29788;SDS011;64899;42.660;23.268;2023-12-14T14:20:56;2.25;;;1.10;;
29788;SDS011;64899;42.660;23.268;2023-12-14T14:23:21;1.38;;;1.00;;